Terminal Aerodrome Forecast
Issued by NWS Albany, NY

Home | Current Version | Previous Version | Text Only | Print | Product List | Glossary On
Versions: 1 2 3 4 5 6 7 8 9 10 11 12 13 14 15 16 17 18 19 20 21
000
FTUS41 KALY 172300 RRA
TAFALB
TAF
KALB 172348Z 1800/1824 29012G18KT P6SM SCT030 OVC040
      TEMPO 1800/1804 OVC030
     FM180500 28012G18KT P6SM OVC030
     FM181300 29015G26KT P6SM BKN035
     FM182200 30010G16KT P6SM BKN040=

USA.gov is the U.S. government's official web portal to all federal, state and local government web resources and services.